Time;durP1;ratioP1;P1;durP2;ratioP2;P2;SDS_P1;SDS_P2;PMS_P1;PMS_P2;Temp;Humidity;BMP_temperature;BMP_pressure;BME280_temperature;BME280_humidity;BME280_pressure;Samples;Min_cycle;Max_cycle;Signal;HPM_P1;HPM_P2
2021/06/13 00:01:23;;;;;;;9.17;3.27;;;12.90;99.90;;;;;;4976654;28;20728;-76
2021/06/13 00:03:50;;;;;;;13.67;3.50;;;12.80;99.90;;;;;;4972715;28;20286;-76
2021/06/13 00:06:17;;;;;;;10.37;3.37;;;12.80;99.90;;;;;;4975042;28;20244;-76
2021/06/13 00:08:43;;;;;;;11.27;3.43;;;12.80;99.90;;;;;;4970936;28;20647;-74
2021/06/13 00:11:10;;;;;;;6.93;3.30;;;13.00;99.90;;;;;;4974414;28;20304;-75
2021/06/13 00:13:37;;;;;;;8.33;3.30;;;12.90;99.90;;;;;;4973999;28;20297;-74
2021/06/13 00:16:05;;;;;;;9.90;3.40;;;13.10;99.90;;;;;;4972383;28;20297;-76
2021/06/13 00:18:32;;;;;;;9.40;3.37;;;13.00;99.90;;;;;;4974573;28;20211;-74
2021/06/13 00:20:59;;;;;;;10.97;3.27;;;12.80;99.90;;;;;;4972289;28;20325;-74
2021/06/13 00:23:25;;;;;;;9.73;3.87;;;12.70;99.90;;;;;;4972143;28;20265;-75
2021/06/13 00:25:52;;;;;;;7.73;3.80;;;12.80;99.90;;;;;;4973090;28;20669;-75
2021/06/13 00:28:18;;;;;;;11.30;3.73;;;12.70;99.90;;;;;;4972648;28;20637;-74
2021/06/13 00:30:45;;;;;;;8.23;3.43;;;12.70;99.90;;;;;;4972989;28;20237;-74
2021/06/13 00:33:13;;;;;;;12.00;3.50;;;12.70;99.90;;;;;;4977727;28;20205;-74
2021/06/13 00:35:39;;;;;;;17.00;4.10;;;12.60;99.90;;;;;;4980307;28;20303;-75
2021/06/13 00:38:06;;;;;;;8.50;3.73;;;12.50;99.90;;;;;;4974017;28;20602;-74
2021/06/13 00:40:34;;;;;;;8.07;3.77;;;12.40;99.90;;;;;;4978695;28;20278;-75
2021/06/13 00:43:01;;;;;;;15.00;3.97;;;12.40;99.90;;;;;;4979083;28;20267;-74
2021/06/13 00:45:27;;;;;;;11.43;4.00;;;12.30;99.90;;;;;;4974389;28;20241;-75
2021/06/13 00:47:54;;;;;;;9.80;3.77;;;12.30;99.90;;;;;;4974945;28;20296;-74
2021/06/13 00:50:28;;;;;;;7.43;3.87;;;12.30;99.90;;;;;;4974219;28;20223;-76
2021/06/13 00:52:54;;;;;;;8.00;3.40;;;12.20;99.90;;;;;;4977553;28;20863;-74
2021/06/13 00:55:21;;;;;;;14.00;3.90;;;12.10;99.90;;;;;;4973418;28;20665;-74
2021/06/13 00:57:47;;;;;;;9.77;4.07;;;12.00;99.90;;;;;;4973467;28;20204;-75
2021/06/13 01:00:15;;;;;;;11.47;3.67;;;11.90;99.90;;;;;;4975549;28;20689;-75
2021/06/13 01:02:41;;;;;;;11.00;3.60;;;11.60;99.90;;;;;;4972784;28;20303;-75
2021/06/13 01:05:09;;;;;;;8.40;4.17;;;11.50;99.90;;;;;;4973865;28;20694;-74
2021/06/13 01:07:44;;;;;;;6.63;3.70;;;11.30;99.90;;;;;;4971990;28;20706;-75
2021/06/13 01:10:19;;;;;;;8.70;4.00;;;11.30;99.90;;;;;;4974209;28;20224;-74
2021/06/13 01:12:51;;;;;;;7.73;4.00;;;11.10;99.90;;;;;;4975564;28;20743;-75
2021/06/13 01:15:22;;;;;;;9.30;3.97;;;11.00;99.90;;;;;;4972265;28;20213;-74
2021/06/13 01:17:56;;;;;;;9.23;4.13;;;10.90;99.90;;;;;;4976993;28;20205;-74
2021/06/13 01:20:25;;;;;;;13.23;4.13;;;10.80;99.90;;;;;;4972472;28;20214;-74
2021/06/13 01:23:25;;;;;;;9.60;4.00;;;10.70;99.90;;;;;;4971058;28;20228;-75
2021/06/13 01:26:28;;;;;;;9.57;3.83;;;10.60;99.90;;;;;;4974065;28;20299;-74
2021/06/13 01:29:00;;;;;;;11.37;4.40;;;10.50;99.90;;;;;;4962768;28;20239;-75
2021/06/13 01:31:31;;;;;;;9.33;4.40;;;10.40;99.90;;;;;;4973921;28;20272;-75
2021/06/13 01:33:59;;;;;;;9.03;4.40;;;10.40;99.90;;;;;;4972750;28;20240;-74
2021/06/13 01:36:28;;;;;;;9.17;5.00;;;10.30;99.90;;;;;;4975890;28;20296;-74
2021/06/13 01:38:56;;;;;;;10.33;4.50;;;10.20;99.90;;;;;;4976227;28;20233;-75
2021/06/13 01:41:26;;;;;;;8.63;4.63;;;10.10;99.90;;;;;;4972526;28;20312;-75
2021/06/13 01:43:55;;;;;;;10.47;4.50;;;10.10;99.90;;;;;;4973719;28;20636;-75
2021/06/13 01:46:24;;;;;;;12.63;4.37;;;10.00;99.90;;;;;;4969621;28;20209;-75
2021/06/13 01:48:52;;;;;;;10.90;4.10;;;9.90;99.90;;;;;;4974588;28;20578;-74
2021/06/13 01:51:19;;;;;;;10.90;4.83;;;9.90;99.90;;;;;;4970382;28;20703;-75
2021/06/13 01:53:46;;;;;;;12.80;4.43;;;9.80;99.90;;;;;;4972154;28;20212;-74
2021/06/13 01:56:15;;;;;;;8.57;4.40;;;9.80;99.90;;;;;;4970349;28;20622;-74
2021/06/13 01:58:44;;;;;;;10.47;4.97;;;9.70;99.90;;;;;;4972864;28;20240;-74
2021/06/13 02:01:12;;;;;;;9.83;4.60;;;;;;;;;;4976360;28;20228;-74
2021/06/13 02:03:42;;;;;;;13.40;4.93;;;;;;;;;;4973384;28;20213;-74
2021/06/13 02:06:09;;;;;;;12.03;4.50;;;;;;;;;;4973899;28;20297;-74
2021/06/13 02:08:37;;;;;;;12.60;4.77;;;;;;;;;;4973245;28;20312;-74
2021/06/13 02:11:04;;;;;;;10.77;4.47;;;;;;;;;;4971673;28;20229;-75
2021/06/13 02:13:32;;;;;;;14.83;4.67;;;;;;;;;;4974131;28;20213;-74
2021/06/13 02:15:59;;;;;;;11.27;4.90;;;;;;;;;;4971804;28;20300;-74
2021/06/13 02:18:27;;;;;;;10.33;4.47;;;;;;;;;;4970738;28;20300;-75
2021/06/13 02:20:57;;;;;;;12.33;5.17;;;;;;;;;;4971654;28;20328;-74
2021/06/13 02:23:25;;;;;;;16.97;5.73;;;;;;;;;;4972718;28;21022;-75
2021/06/13 02:25:53;;;;;;;9.73;5.03;;;;;;;;;;4972220;28;20457;-75
2021/06/13 02:28:21;;;;;;;9.23;4.33;;;;;;;;;;4972518;28;20729;-75
2021/06/13 02:30:49;;;;;;;10.70;5.27;;;;;;;;;;4973053;28;20264;-74
2021/06/13 02:33:16;;;;;;;11.30;5.10;;;;;;;;;;4972162;28;20267;-74
2021/06/13 02:35:44;;;;;;;11.03;4.63;;;;;;;;;;4974727;28;20291;-75
2021/06/13 02:38:13;;;;;;;7.57;4.33;;;;;;;;;;4972125;28;20288;-75
2021/06/13 02:40:39;;;;;;;9.63;4.37;;;;;;;;;;4974446;28;20316;-74
2021/06/13 02:43:06;;;;;;;13.40;5.20;;;;;;;;;;4978284;28;20316;-75
2021/06/13 02:45:33;;;;;;;10.13;4.30;;;;;;;;;;4976368;28;20779;-75
2021/06/13 02:47:59;;;;;;;10.77;4.33;;;;;;;;;;4974906;28;20297;-75
2021/06/13 02:50:27;;;;;;;12.00;4.93;;;;;;;;;;4978813;28;20312;-74
2021/06/13 02:52:56;;;;;;;12.33;5.00;;;;;;;;;;4978694;28;20205;-74
2021/06/13 02:55:27;;;;;;;17.13;4.80;;;;;;;;;;4973007;28;20297;-75
2021/06/13 02:57:57;;;;;;;11.17;5.00;;;;;;;;;;4975210;28;20316;-75
2021/06/13 03:00:24;;;;;;;11.07;4.97;;;;;;;;;;4977378;28;20264;-74
2021/06/13 03:02:52;;;;;;;12.73;4.90;;;;;;;;;;4979388;28;20260;-74
2021/06/13 03:05:20;;;;;;;9.93;4.50;;;;;;;;;;4980118;28;20648;-75
2021/06/13 03:07:47;;;;;;;13.57;4.80;;;;;;;;;;4975944;28;20205;-75
2021/06/13 03:10:14;;;;;;;12.30;5.50;;;;;;;;;;4975849;28;20285;-75
2021/06/13 03:12:43;;;;;;;10.30;4.80;;;;;;;;;;4978374;28;20696;-75
2021/06/13 03:15:10;;;;;;;14.17;4.97;;;;;;;;;;4975901;28;20417;-75
2021/06/13 03:17:38;;;;;;;15.07;5.80;;;;;;;;;;4977138;28;20244;-75
2021/06/13 03:20:05;;;;;;;10.53;4.90;;;;;;;;;;4976316;28;20269;-75
2021/06/13 03:22:33;;;;;;;12.30;5.20;;;;;;;;;;4982232;28;20225;-75
2021/06/13 03:25:02;;;;;;;8.53;4.70;;;;;;;;;;4980060;28;20707;-75
2021/06/13 03:27:29;;;;;;;12.57;4.67;;;;;;;;;;4976974;28;21082;-74
2021/06/13 03:29:58;;;;;;;17.53;4.97;;;;;;;;;;4972978;28;20296;-74
2021/06/13 03:32:26;;;;;;;12.70;5.00;;;;;;;;;;4973676;28;20594;-74
2021/06/13 03:34:53;;;;;;;12.27;5.77;;;;;;;;;;4977606;28;20206;-75
2021/06/13 03:37:21;;;;;;;10.43;5.13;;;;;;;;;;4974221;28;20200;-74
2021/06/13 03:39:48;;;;;;;8.43;5.07;;;;;;;;;;4979726;28;20255;-74
2021/06/13 03:42:16;;;;;;;8.67;4.83;;;;;;;;;;4975299;28;20681;-74
2021/06/13 03:44:44;;;;;;;9.97;5.00;;;;;;;;;;4977406;28;20300;-75
2021/06/13 03:47:13;;;;;;;11.00;4.87;;;;;;;;;;4973272;28;20407;-74
2021/06/13 03:49:40;;;;;;;12.07;4.87;;;;;;;;;;4973192;28;20301;-75
2021/06/13 03:52:08;;;;;;;11.03;4.83;;;;;;;;;;4973725;28;20353;-75
2021/06/13 03:54:35;;;;;;;8.83;4.43;;;;;;;;;;4976391;28;20264;-74
2021/06/13 03:57:04;;;;;;;11.47;4.40;;;;;;;;;;4972610;28;20293;-74
2021/06/13 03:59:32;;;;;;;8.63;4.20;;;;;;;;;;4975108;28;20225;-74
2021/06/13 04:02:00;;;;;;;8.80;3.83;;;;;;;;;;4974125;28;20413;-75
2021/06/13 04:04:30;;;;;;;11.60;4.17;;;;;;;;;;4976030;28;20206;-75
2021/06/13 04:06:57;;;;;;;12.07;4.30;;;;;;;;;;4974883;28;20570;-74
2021/06/13 04:09:25;;;;;;;10.47;4.33;;;;;;;;;;4978335;28;20212;-75
2021/06/13 04:11:53;;;;;;;7.93;3.80;;;;;;;;;;4975161;28;20234;-75
2021/06/13 04:14:21;;;;;;;10.67;3.87;;;;;;;;;;4973899;28;20305;-74
2021/06/13 04:16:48;;;;;;;9.13;3.67;;;;;;;;;;4973671;28;20201;-75
2021/06/13 04:19:16;;;;;;;12.17;4.50;;;;;;;;;;4973588;28;20237;-75
2021/06/13 04:21:46;;;;;;;7.53;3.70;;;;;;;;;;4973948;28;20276;-76
2021/06/13 04:24:14;;;;;;;9.50;3.97;;;;;;;;;;4975102;28;20218;-75
2021/06/13 04:26:42;;;;;;;12.57;3.70;;;;;;;;;;4974047;28;20227;-75
2021/06/13 04:29:10;;;;;;;7.57;3.13;;;;;;;;;;4975861;28;20278;-75
2021/06/13 04:31:37;;;;;;;7.50;3.63;;;;;;;;;;4972817;28;20310;-75
2021/06/13 04:34:04;;;;;;;7.07;3.53;;;;;;;;;;4971683;28;20212;-75
2021/06/13 04:36:31;;;;;;;7.90;3.30;;;;;;;;;;4976207;28;20209;-75
2021/06/13 04:38:59;;;;;;;6.03;3.43;;;9.70;99.90;;;;;;4972161;28;20236;-75
2021/06/13 04:41:27;;;;;;;6.30;3.40;;;16.50;99.90;;;;;;4975879;28;20312;-75
2021/06/13 04:43:54;;;;;;;9.33;3.67;;;16.60;99.90;;;;;;4973491;28;20826;-75
2021/06/13 04:46:26;;;;;;;9.30;3.20;;;16.80;99.90;;;;;;4973839;28;20209;-76
2021/06/13 04:48:53;;;;;;;6.53;3.00;;;17.30;99.90;;;;;;4971686;28;20221;-75
2021/06/13 04:51:25;;;;;;;8.73;3.07;;;17.40;99.90;;;;;;4970383;28;20344;-76
2021/06/13 04:54:20;;;;;;;9.80;3.37;;;17.30;99.90;;;;;;4974670;28;20289;-75
2021/06/13 04:56:57;;;;;;;9.50;3.43;;;17.40;99.90;;;;;;4971390;28;20217;-75
2021/06/13 04:59:24;;;;;;;9.00;3.57;;;17.80;99.90;;;;;;4971845;28;20300;-76
2021/06/13 05:01:51;;;;;;;6.93;3.30;;;18.30;99.90;;;;;;4976672;28;20312;-77
2021/06/13 05:04:18;;;;;;;9.77;3.30;;;18.90;99.90;;;;;;4972508;28;20293;-76
2021/06/13 05:06:45;;;;;;;8.63;3.23;;;19.50;99.90;;;;;;4971302;28;20210;-75
2021/06/13 05:09:13;;;;;;;9.57;3.33;;;19.40;99.90;;;;;;4977152;28;20213;-77
2021/06/13 05:11:42;;;;;;;6.70;3.07;;;19.30;99.90;;;;;;4974495;28;20280;-76
2021/06/13 05:14:09;;;;;;;7.90;3.27;;;19.10;99.90;;;;;;4975181;28;20768;-75
2021/06/13 05:16:38;;;;;;;7.77;3.47;;;19.40;99.90;;;;;;4978912;28;20209;-75
2021/06/13 05:19:05;;;;;;;12.93;3.63;;;;;;;;;;4975598;28;20296;-76
2021/06/13 05:21:32;;;;;;;9.63;3.33;;;;;;;;;;4973189;28;20228;-76
2021/06/13 05:26:27;;;;;;;10.90;3.30;;;;;;;;;;4973103;28;20221;-74
2021/06/13 05:28:56;;;;;;;10.77;3.00;;;;;;;;;;4974043;28;21289;-74
2021/06/13 05:31:23;;;;;;;7.93;3.20;;;;;;;;;;4976336;28;20228;-72
2021/06/13 05:33:51;;;;;;;9.80;3.50;;;;;;;;;;4976152;28;20288;-74
2021/06/13 05:36:18;;;;;;;7.90;3.23;;;;;;;;;;4969720;28;20292;-72
2021/06/13 05:38:45;;;;;;;10.43;3.50;;;;;;;;;;4968425;28;20205;-72
2021/06/13 05:41:13;;;;;;;9.37;3.40;;;;;;;;;;4968202;28;20241;-73
2021/06/13 05:43:42;;;;;;;6.37;3.27;;;;;;;;;;4968690;28;20225;-72
2021/06/13 05:46:10;;;;;;;11.87;3.37;;;;;;;;;;4969543;28;20282;-72
2021/06/13 05:48:37;;;;;;;10.63;3.27;;;;;;;;;;4972285;28;20284;-72
2021/06/13 05:51:05;;;;;;;13.37;3.63;;;;;;;;;;4972622;28;20320;-71
2021/06/13 05:53:32;;;;;;;8.10;2.77;;;;;;;;;;4971249;28;20746;-73
2021/06/13 05:56:00;;;;;;;12.07;3.30;;;;;;;;;;4973176;28;20295;-72
2021/06/13 05:58:27;;;;;;;9.07;3.27;;;;;;;;;;4970916;28;20220;-72
2021/06/13 06:00:54;;;;;;;9.37;3.10;;;;;;;;;;4969789;28;20225;-73
2021/06/13 06:03:23;;;;;;;8.13;3.00;;;;;;;;;;4981731;28;20320;-73
2021/06/13 06:05:51;;;;;;;7.53;2.63;;;;;;;;;;4976259;28;20224;-73
2021/06/13 06:08:18;;;;;;;5.93;2.70;;;;;;;;;;4971224;28;20331;-73
2021/06/13 06:10:46;;;;;;;7.27;2.93;;;;;;;;;;4969554;28;20242;-73
2021/06/13 06:13:13;;;;;;;9.40;2.93;;;;;;;;;;4966189;28;20327;-73
2021/06/13 06:15:41;;;;;;;6.17;2.53;;;;;;;;;;4967815;28;20227;-73
2021/06/13 06:18:09;;;;;;;9.70;3.00;;;;;;;;;;4981159;28;20208;-73
2021/06/13 06:20:37;;;;;;;10.30;2.93;;;;;;;;;;4982978;28;20233;-73
2021/06/13 06:23:05;;;;;;;7.97;2.70;;;;;;;;;;4973197;28;20240;-73
2021/06/13 06:25:32;;;;;;;7.70;2.60;;;;;;;;;;4973020;28;20331;-73
2021/06/13 06:28:00;;;;;;;9.97;3.10;;;;;;;;;;4973041;28;20222;-73
2021/06/13 06:30:28;;;;;;;8.13;3.10;;;;;;;;;;4970131;28;20229;-73
2021/06/13 06:32:55;;;;;;;8.77;3.07;;;;;;;;;;4971313;28;20298;-75
2021/06/13 06:35:23;;;;;;;8.67;3.00;;;;;;;;;;4973792;28;20399;-72
2021/06/13 06:37:52;;;;;;;10.27;3.33;;;;;;;;;;4971115;28;20216;-72
2021/06/13 06:40:19;;;;;;;7.73;2.87;;;;;;;;;;4971177;28;20343;-72
2021/06/13 06:42:46;;;;;;;9.10;2.70;;;;;;;;;;4975422;28;20221;-72
2021/06/13 06:45:14;;;;;;;6.50;2.87;;;;;;;;;;4973308;28;20315;-72
2021/06/13 06:47:42;;;;;;;9.10;3.00;;;;;;;;;;4975351;28;21400;-73
2021/06/13 06:50:10;;;;;;;10.80;3.00;;;;;;;;;;4980255;28;20213;-72
2021/06/13 06:52:37;;;;;;;7.40;2.83;;;;;;;;;;4979909;28;20583;-73
2021/06/13 06:55:07;;;;;;;6.50;2.63;;;19.80;99.90;;;;;;4980995;28;20205;-72
2021/06/13 06:57:35;;;;;;;9.67;2.80;;;;;;;;;;4980318;28;20294;-73
2021/06/13 07:00:02;;;;;;;8.13;2.83;;;;;;;;;;4981299;28;20228;-73
2021/06/13 07:02:29;;;;;;;8.47;3.07;;;;;;;;;;4982135;28;20292;-73
2021/06/13 07:04:57;;;;;;;6.23;2.30;;;;;;;;;;4979432;28;20304;-72
2021/06/13 07:07:24;;;;;;;9.33;2.80;;;;;;;;;;4981863;28;20209;-73
2021/06/13 07:09:51;;;;;;;11.43;2.83;;;;;;;;;;4979636;28;20205;-72
2021/06/13 07:12:20;;;;;;;7.13;2.40;;;;;;;;;;4980500;28;20253;-73
2021/06/13 07:14:47;;;;;;;5.97;2.60;;;;;;;;;;4978998;28;20197;-73
2021/06/13 07:17:14;;;;;;;8.23;2.47;;;;;;;;;;4979499;28;20205;-72
2021/06/13 07:19:42;;;;;;;6.43;2.80;;;;;;;;;;4979722;28;20215;-73
2021/06/13 07:22:09;;;;;;;7.60;2.67;;;;;;;;;;4977404;28;20283;-73
2021/06/13 07:24:36;;;;;;;5.25;2.47;;;;;;;;;;4979648;28;20228;-73
2021/06/13 07:27:03;;;;;;;7.57;2.78;;;;;;;;;;4979860;28;20263;-72
2021/06/13 07:29:32;;;;;;;8.88;2.70;;;;;;;;;;4980321;28;20296;-72
2021/06/13 07:31:59;;;;;;;11.23;2.50;;;;;;;;;;4979239;28;20316;-72
2021/06/13 07:34:26;;;;;;;6.28;2.60;;;;;;;;;;4978957;28;20598;-73
2021/06/13 07:36:53;;;;;;;5.85;2.10;;;;;;;;;;4977329;28;20593;-73
2021/06/13 07:39:21;;;;;;;7.35;2.78;;;;;;;;;;4977948;28;20218;-73
2021/06/13 07:41:49;;;;;;;7.32;2.00;;;;;;;;;;4978782;28;20246;-73
2021/06/13 07:44:17;;;;;;;6.15;2.53;;;;;;;;;;4979660;28;20218;-72
2021/06/13 07:46:45;;;;;;;7.38;2.65;;;;;;;;;;4978035;28;20210;-72
2021/06/13 07:49:12;;;;;;;5.85;1.98;;;;;;;;;;4981422;28;20198;-73
2021/06/13 07:51:40;;;;;;;7.65;2.58;;;;;;;;;;4978642;28;20224;-72
2021/06/13 07:54:07;;;;;;;5.73;2.57;;;;;;;;;;4977266;28;20292;-73
2021/06/13 07:56:34;;;;;;;6.65;2.67;;;;;;;;;;4978158;28;20215;-73
2021/06/13 07:59:02;;;;;;;5.25;2.40;;;;;;;;;;4974405;28;20288;-73
2021/06/13 08:01:29;;;;;;;5.20;2.40;;;;;;;;;;4978793;28;20276;-73
2021/06/13 08:03:57;;;;;;;5.22;2.00;;;;;;;;;;4975480;28;20662;-73
2021/06/13 08:06:24;;;;;;;4.88;2.35;;;;;;;;;;4976071;28;20300;-72
2021/06/13 08:08:52;;;;;;;7.32;2.60;;;;;;;;;;4975581;28;20396;-73
2021/06/13 08:11:19;;;;;;;5.53;2.60;;;;;;;;;;4975090;28;20249;-73
2021/06/13 08:13:46;;;;;;;7.80;2.67;;;;;;;;;;4981728;28;20215;-73
2021/06/13 08:16:13;;;;;;;8.33;2.40;;;;;;;;;;4978179;28;20743;-73
2021/06/13 08:18:41;;;;;;;6.23;2.33;;;;;;;;;;4976593;28;20235;-73
2021/06/13 08:21:09;;;;;;;5.45;2.30;;;;;;;;;;4976683;28;20225;-73
2021/06/13 08:23:36;;;;;;;6.73;2.47;;;;;;;;;;4975287;28;20338;-73
2021/06/13 08:26:04;;;;;;;4.63;2.20;;;;;;;;;;4978499;28;20764;-72
2021/06/13 08:28:31;;;;;;;7.73;2.50;;;;;;;;;;4974268;28;20296;-72
2021/06/13 08:30:58;;;;;;;8.20;2.53;;;;;;;;;;4974732;28;20225;-73
2021/06/13 08:33:26;;;;;;;5.10;2.20;;;;;;;;;;4975658;28;20288;-72
2021/06/13 08:35:53;;;;;;;9.20;2.33;;;;;;;;;;4974614;28;20304;-73
2021/06/13 08:38:23;;;;;;;4.97;2.55;;;;;;;;;;4971888;28;20241;-72
2021/06/13 08:40:50;;;;;;;9.60;2.73;;;;;;;;;;4977036;28;20285;-72
2021/06/13 08:43:18;;;;;;;5.88;2.30;;;;;;;;;;4971112;28;20291;-72
2021/06/13 08:45:46;;;;;;;5.25;2.42;;;;;;;;;;4978621;28;20951;-73
2021/06/13 08:48:14;;;;;;;4.38;2.00;;;;;;;;;;4974882;28;20297;-73
2021/06/13 08:50:42;;;;;;;6.10;2.35;;;;;;;;;;4974436;28;20608;-73
2021/06/13 08:53:09;;;;;;;4.97;2.00;;;;;;;;;;4975919;28;20202;-73
2021/06/13 08:55:38;;;;;;;5.82;2.45;;;;;;;;;;4975861;28;20237;-73
2021/06/13 08:58:05;;;;;;;4.75;2.67;;;;;;;;;;4975883;28;20694;-72
2021/06/13 09:00:34;;;;;;;5.90;2.33;;;;;;;;;;4974064;28;20284;-73
2021/06/13 09:03:02;;;;;;;6.85;2.70;;;;;;;;;;4976800;28;20310;-72
2021/06/13 09:05:29;;;;;;;5.80;2.47;;;;;;;;;;4978009;28;20235;-73
2021/06/13 09:07:57;;;;;;;6.40;2.55;;;;;;;;;;4974508;28;20300;-73
2021/06/13 09:10:27;;;;;;;5.87;2.40;;;;;;;;;;4972904;28;20226;-72
2021/06/13 09:13:12;;;;;;;5.77;2.37;;;;;;;;;;4975816;28;20589;-72
2021/06/13 09:15:42;;;;;;;7.03;2.20;;;;;;;;;;4971792;28;20204;-72
2021/06/13 09:18:10;;;;;;;7.00;2.70;;;;;;;;;;4974262;28;20300;-72
2021/06/13 09:20:37;;;;;;;7.50;2.43;;;;;;;;;;4974240;28;20698;-72
2021/06/13 09:23:10;;;;;;;8.47;2.47;;;;;;;;;;4981147;28;20235;-72
2021/06/13 09:25:40;;;;;;;7.37;2.70;;;;;;;;;;4976412;28;20274;-72
2021/06/13 09:28:08;;;;;;;5.83;2.40;;;;;;;;;;4978622;28;20210;-72
2021/06/13 09:30:36;;;;;;;6.67;2.93;;;;;;;;;;4975708;28;20221;-72
2021/06/13 09:33:09;;;;;;;8.20;2.40;;;;;;;;;;4973507;28;20667;-72
2021/06/13 09:35:37;;;;;;;5.93;2.77;;;;;;;;;;4973022;28;20215;-72
2021/06/13 09:38:05;;;;;;;4.27;2.47;;;;;;;;;;4973987;28;20287;-73
2021/06/13 09:40:32;;;;;;;5.60;2.37;;;;;;;;;;4969061;28;20307;-72
2021/06/13 09:43:01;;;;;;;5.27;2.67;;;;;;;;;;4982608;28;20292;-72
2021/06/13 09:45:28;;;;;;;4.77;2.23;;;;;;;;;;4977172;28;20312;-72
2021/06/13 09:48:01;;;;;;;8.13;2.60;;;;;;;;;;4975634;28;20207;-72
2021/06/13 09:50:40;;;;;;;7.27;2.70;;;;;;;;;;4976313;28;20225;-72
2021/06/13 09:53:34;;;;;;;6.43;2.50;;;;;;;;;;4978758;28;20260;-73
2021/06/13 09:56:14;;;;;;;10.93;2.53;;;;;;;;;;4955519;28;20280;-73
2021/06/13 09:58:59;;;;;;;9.37;2.70;;;;;;;;;;4980171;28;20655;-73
2021/06/13 10:01:29;;;;;;;9.10;2.80;;;;;;;;;;4974754;28;20303;-72
2021/06/13 10:03:56;;;;;;;7.53;2.90;;;;;;;;;;4977552;28;20232;-73
2021/06/13 10:06:28;;;;;;;6.20;2.73;;;;;;;;;;4978828;28;20233;-73
2021/06/13 10:08:57;;;;;;;5.97;2.70;;;;;;;;;;4980435;28;20761;-74
2021/06/13 10:11:24;;;;;;;6.07;2.50;;;;;;;;;;4978929;28;20239;-74
2021/06/13 10:13:53;;;;;;;7.37;2.77;;;;;;;;;;4978068;28;20293;-74
2021/06/13 10:16:43;;;;;;;5.50;2.60;;;;;;;;;;4974879;28;20292;-70
2021/06/13 10:19:12;;;;;;;5.53;2.63;;;;;;;;;;4976052;28;20566;-72
2021/06/13 10:21:41;;;;;;;7.13;2.67;;;;;;;;;;4977384;28;20213;-72
2021/06/13 10:24:10;;;;;;;5.87;2.37;;;;;;;;;;4976639;28;20316;-73
2021/06/13 10:26:38;;;;;;;5.00;2.43;;;;;;;;;;4976864;28;20672;-75
2021/06/13 10:29:06;;;;;;;7.20;3.07;;;;;;;;;;4976855;28;20304;-73
2021/06/13 10:31:33;;;;;;;8.50;3.10;;;;;;;;;;4979779;28;20228;-73
2021/06/13 10:34:01;;;;;;;9.60;2.57;;;;;;;;;;4977995;28;20303;-72
2021/06/13 10:36:29;;;;;;;8.13;4.53;;;;;;;;;;4979667;28;20737;-73
2021/06/13 10:38:58;;;;;;;6.97;2.43;;;;;;;;;;4976055;28;20223;-72
2021/06/13 10:41:25;;;;;;;5.20;2.50;;;;;;;;;;4977883;28;20659;-73
2021/06/13 10:43:59;;;;;;;5.07;2.77;;;;;;;;;;4974805;28;21562;-72
2021/06/13 10:46:27;;;;;;;4.80;2.50;;;;;;;;;;4975998;28;20691;-73
2021/06/13 10:48:56;;;;;;;8.37;2.40;;;;;;;;;;4978095;28;20205;-72
2021/06/13 10:51:27;;;;;;;9.43;2.63;;;;;;;;;;4976820;28;20256;-72
2021/06/13 10:53:54;;;;;;;4.87;2.60;;;;;;;;;;4976608;28;20201;-73
2021/06/13 10:56:26;;;;;;;4.57;2.30;;;;;;;;;;4977908;28;20859;-73
2021/06/13 10:58:59;;;;;;;6.77;2.20;;;;;;;;;;4974924;28;20763;-73
2021/06/13 11:01:27;;;;;;;5.33;2.53;;;;;;;;;;4977055;28;20241;-73
2021/06/13 11:04:04;;;;;;;5.03;2.60;;;;;;;;;;4977408;28;20205;-72
2021/06/13 11:06:42;;;;;;;7.53;2.90;;;;;;;;;;4979763;28;20205;-72
2021/06/13 11:09:11;;;;;;;6.83;2.30;;;;;;;;;;4977394;28;20311;-72
2021/06/13 11:11:41;;;;;;;6.37;2.03;;;;;;;;;;4976821;28;20226;-73
2021/06/13 11:14:32;;;;;;;9.03;3.93;;;;;;;;;;4977930;28;20207;-72
2021/06/13 11:17:00;;;;;;;6.83;2.23;;;;;;;;;;4959655;28;20292;-73
2021/06/13 11:19:32;;;;;;;6.13;2.63;;;;;;;;;;4983507;28;20237;-72
2021/06/13 11:22:32;;;;;;;4.83;2.20;;;;;;;;;;4979349;28;20669;-73
2021/06/13 11:25:00;;;;;;;5.17;2.27;;;;;;;;;;4902292;29;20232;-73
2021/06/13 11:27:32;;;;;;;5.30;2.33;;;;;;;;;;4907531;29;20211;-72
2021/06/13 11:30:00;;;;;;;5.20;2.93;;;;;;;;;;4939628;28;20697;-73
2021/06/13 11:32:42;;;;;;;6.37;2.13;;;;;;;;;;4977128;28;20327;-72
2021/06/13 11:35:26;;;;;;;5.23;2.00;;;;;;;;;;4975909;28;20256;-71
2021/06/13 11:38:23;;;;;;;6.93;2.23;;;;;;;;;;4977496;28;20665;-73
2021/06/13 11:40:51;;;;;;;7.60;2.57;;;;;;;;;;4978270;28;20327;-70
2021/06/13 11:43:20;;;;;;;9.03;2.80;;;;;;;;;;4976404;28;20295;-71
2021/06/13 11:48:19;;;;;;;6.20;2.50;;;;;;;;;;4935419;28;20334;-76
2021/06/13 11:50:59;;;;;;;3.50;2.03;;;;;;;;;;4948816;28;20248;-76
2021/06/13 11:53:41;;;;;;;4.63;2.23;;;;;;;;;;4947582;28;20672;-76
2021/06/13 11:56:12;;;;;;;6.50;2.07;;;;;;;;;;4947916;28;20271;-76
2021/06/13 11:58:40;;;;;;;6.27;2.50;;;;;;;;;;4949502;28;20214;-76
2021/06/13 12:01:07;;;;;;;8.83;2.30;;;;;;;;;;4948225;28;20272;-76
2021/06/13 12:03:40;;;;;;;5.60;2.30;;;;;;;;;;4948834;28;20209;-76
2021/06/13 12:06:14;;;;;;;5.50;2.27;;;;;;;;;;4948546;28;20232;-76
2021/06/13 12:08:42;;;;;;;7.27;2.27;;;;;;;;;;4947984;28;20231;-77
2021/06/13 12:11:09;;;;;;;5.90;2.10;;;;;;;;;;4946279;28;20704;-77
2021/06/13 12:13:37;;;;;;;7.50;1.97;;;;;;;;;;4949981;28;20252;-76
2021/06/13 12:16:22;;;;;;;5.67;2.30;;;;;;;;;;4951537;28;20294;-76
2021/06/13 12:19:00;;;;;;;3.73;1.97;;;;;;;;;;4948745;28;20202;-76
2021/06/13 12:21:28;;;;;;;6.07;2.37;;;;;;;;;;4949688;28;20245;-77
2021/06/13 12:24:01;;;;;;;4.53;2.30;;;;;;;;;;4949707;28;20218;-75
2021/06/13 12:29:24;;;;;;;4.53;2.13;;;;;;;;;;4949186;28;20732;-74
2021/06/13 12:31:51;;;;;;;4.63;2.20;;;;;;;;;;4948459;28;20261;-75
2021/06/13 12:34:20;;;;;;;5.40;2.37;;;;;;;;;;4948577;28;20210;-74
2021/06/13 12:36:51;;;;;;;10.07;2.43;;;;;;;;;;4949131;28;20206;-75
2021/06/13 12:39:25;;;;;;;7.20;2.30;;;;;;;;;;4945843;28;20677;-75
2021/06/13 12:41:53;;;;;;;4.07;1.90;;;;;;;;;;4946468;28;20234;-75
2021/06/13 12:44:20;;;;;;;7.97;2.30;;;;;;;;;;4949058;28;20308;-75
2021/06/13 12:46:48;;;;;;;6.30;2.37;;;;;;;;;;4948397;28;20249;-75
2021/06/13 12:49:15;;;;;;;6.77;2.20;;;;;;;;;;4947575;28;20225;-75
2021/06/13 12:51:46;;;;;;;6.73;2.53;;;;;;;;;;4946742;28;20776;-75
2021/06/13 12:54:17;;;;;;;8.50;2.90;;;;;;;;;;4948089;28;20307;-75
2021/06/13 12:56:46;;;;;;;9.80;2.50;;;;;;;;;;4946655;28;20644;-75
2021/06/13 12:59:13;;;;;;;4.73;2.30;;;;;;;;;;4945628;28;20202;-75
2021/06/13 13:01:43;;;;;;;7.67;2.40;;;;;;;;;;4947909;28;20234;-75
2021/06/13 13:04:10;;;;;;;8.80;2.60;;;;;;;;;;4947473;28;20297;-75
2021/06/13 13:06:55;;;;;;;8.37;2.40;;;;;;;;;;4947019;28;20324;-75
2021/06/13 13:09:24;;;;;;;9.00;2.30;;;;;;;;;;4948849;29;20317;-76
2021/06/13 13:11:53;;;;;;;4.93;2.10;;;;;;;;;;4948542;28;20250;-75
2021/06/13 13:14:20;;;;;;;3.90;2.27;;;;;;;;;;4949580;28;20245;-76
2021/06/13 13:16:48;;;;;;;8.60;2.33;;;;;;;;;;4951689;28;20503;-75
2021/06/13 13:19:29;;;;;;;6.70;2.00;;;;;;;;;;4947976;28;20297;-75
2021/06/13 13:21:56;;;;;;;4.67;2.40;;;;;;;;;;4949816;28;20238;-75
2021/06/13 13:24:32;;;;;;;4.70;1.83;;;;;;;;;;4947239;28;20428;-76
2021/06/13 13:27:00;;;;;;;6.60;2.10;;;;;;;;;;4942035;29;20727;-75
2021/06/13 13:29:38;;;;;;;5.13;2.40;;;;;;;;;;4941556;28;20208;-75
2021/06/13 13:32:05;;;;;;;6.70;2.43;;;;;;;;;;4942834;28;20326;-75
2021/06/13 13:34:34;;;;;;;4.77;2.30;;;;;;;;;;4943757;28;20228;-76
2021/06/13 13:37:05;;;;;;;6.00;2.43;;;;;;;;;;4942020;28;20206;-75
2021/06/13 13:39:34;;;;;;;4.00;2.10;;;;;;;;;;4942608;28;20233;-75
2021/06/13 13:42:02;;;;;;;29.47;12.03;;;;;;;;;;4946658;28;20259;-74
2021/06/13 13:44:30;;;;;;;4.43;2.23;;;;;;;;;;4946379;28;20298;-74
2021/06/13 13:47:01;;;;;;;7.10;2.67;;;;;;;;;;4944330;28;20708;-73
2021/06/13 13:49:28;;;;;;;4.93;2.43;;;;;;;;;;4946995;28;20215;-74
2021/06/13 13:51:56;;;;;;;6.10;2.50;;;;;;;;;;4947613;28;20357;-74
2021/06/13 13:54:28;;;;;;;4.77;1.97;;;;;;;;;;4947131;28;20580;-75
2021/06/13 13:56:57;;;;;;;5.10;2.20;;;;;;;;;;4946899;28;20649;-74
2021/06/13 13:59:25;;;;;;;7.80;2.60;;;;;;;;;;4946836;28;20209;-74
2021/06/13 14:01:52;;;;;;;5.33;2.37;;;;;;;;;;4945784;29;20288;-75
2021/06/13 14:04:21;;;;;;;5.07;2.10;;;;;;;;;;4945001;28;20257;-76
2021/06/13 14:06:49;;;;;;;8.27;2.17;;;;;;;;;;4943679;28;20258;-74
2021/06/13 14:09:16;;;;;;;7.30;2.37;;;;;;;;;;4946039;28;20239;-75
2021/06/13 14:11:43;;;;;;;5.93;2.13;;;;;;;;;;4943096;28;20342;-74
2021/06/13 14:14:12;;;;;;;4.47;1.80;;;;;;;;;;4942623;28;20639;-75
2021/06/13 14:16:39;;;;;;;4.13;2.00;;;;;;;;;;4945478;28;20314;-74
2021/06/13 14:19:06;;;;;;;8.03;2.43;;;;;;;;;;4935087;28;20297;-76
2021/06/13 14:21:33;;;;;;;5.67;2.30;;;;;;;;;;4937847;28;20761;-75
2021/06/13 14:24:01;;;;;;;7.50;2.40;;;;;;;;;;4939346;28;20212;-75
2021/06/13 14:26:28;;;;;;;5.97;2.43;;;;;;;;;;4939597;28;20235;-75
2021/06/13 14:28:55;;;;;;;5.60;2.30;;;;;;;;;;4939904;28;20297;-75
2021/06/13 14:31:24;;;;;;;5.87;2.43;;;;;;;;;;4933257;28;20728;-74
2021/06/13 14:33:52;;;;;;;4.60;2.20;;;;;;;;;;4936936;28;20295;-76
2021/06/13 14:36:19;;;;;;;5.40;1.90;;;;;;;;;;4933785;28;20774;-76